sensor_id;sensor_type;location;lat;lon;timestamp;pressure;altitude;pressure_sealevel;temperature;humidity
81704;BME280;71117;52.352;4.808;2023-07-13T00:02:07;101386.31;;;15.75;86.75
81704;BME280;71117;52.352;4.808;2023-07-13T00:04:33;101390.75;;;15.76;86.67
81704;BME280;71117;52.352;4.808;2023-07-13T00:06:59;101394.31;;;15.76;86.97
81704;BME280;71117;52.352;4.808;2023-07-13T00:09:25;101390.78;;;15.80;86.91
81704;BME280;71117;52.352;4.808;2023-07-13T00:11:54;101380.16;;;15.83;87.04
81704;BME280;71117;52.352;4.808;2023-07-13T00:14:19;101387.28;;;15.89;86.78
81704;BME280;71117;52.352;4.808;2023-07-13T00:16:45;101381.97;;;15.92;86.75
81704;BME280;71117;52.352;4.808;2023-07-13T00:19:12;101392.59;;;15.94;86.73
81704;BME280;71117;52.352;4.808;2023-07-13T00:21:38;101394.44;;;16.04;86.28
81704;BME280;71117;52.352;4.808;2023-07-13T00:24:05;101386.47;;;16.07;86.38
81704;BME280;71117;52.352;4.808;2023-07-13T00:26:31;101396.22;;;16.09;86.31
81704;BME280;71117;52.352;4.808;2023-07-13T00:28:57;101392.72;;;16.12;86.10
81704;BME280;71117;52.352;4.808;2023-07-13T00:31:23;101390.94;;;16.12;85.64
81704;BME280;71117;52.352;4.808;2023-07-13T00:33:48;101389.16;;;16.13;85.77
81704;BME280;71117;52.352;4.808;2023-07-13T00:36:14;101390.94;;;16.11;85.64
81704;BME280;71117;52.352;4.808;2023-07-13T00:38:40;101400.72;;;16.18;84.49
81704;BME280;71117;52.352;4.808;2023-07-13T00:41:05;101396.25;;;16.12;84.98
81704;BME280;71117;52.352;4.808;2023-07-13T00:43:31;101398.00;;;16.07;84.70
81704;BME280;71117;52.352;4.808;2023-07-13T00:46:18;101397.13;;;16.05;84.37
81704;BME280;71117;52.352;4.808;2023-07-13T00:48:46;101401.53;;;15.96;85.00
81704;BME280;71117;52.352;4.808;2023-07-13T00:51:13;101402.41;;;15.95;83.90
81704;BME280;71117;52.352;4.808;2023-07-13T00:53:39;101393.47;;;15.88;85.00
81704;BME280;71117;52.352;4.808;2023-07-13T00:56:05;101389.94;;;15.84;84.41
81704;BME280;71117;52.352;4.808;2023-07-13T00:58:32;101388.16;;;15.83;84.26
81704;BME280;71117;52.352;4.808;2023-07-13T01:00:58;101389.00;;;15.79;83.26
81704;BME280;71117;52.352;4.808;2023-07-13T01:03:23;101388.97;;;15.75;84.45
81704;BME280;71117;52.352;4.808;2023-07-13T01:05:49;101389.84;;;15.69;83.79
81704;BME280;71117;52.352;4.808;2023-07-13T01:08:15;101397.72;;;15.58;84.34
81704;BME280;71117;52.352;4.808;2023-07-13T01:10:50;101399.44;;;15.46;84.39
81704;BME280;71117;52.352;4.808;2023-07-13T01:13:15;101402.06;;;15.38;84.90
81704;BME280;71117;52.352;4.808;2023-07-13T01:15:49;101411.81;;;15.39;84.15
81704;BME280;71117;52.352;4.808;2023-07-13T01:18:20;101411.75;;;15.31;84.92
81704;BME280;71117;52.352;4.808;2023-07-13T01:21:04;101403.72;;;15.25;85.32
81704;BME280;71117;52.352;4.808;2023-07-13T01:23:29;101411.66;;;15.18;85.64
81704;BME280;71117;52.352;4.808;2023-07-13T01:25:56;101408.94;;;15.15;85.64
81704;BME280;71117;52.352;4.808;2023-07-13T01:28:23;101409.78;;;15.09;86.43
81704;BME280;71117;52.352;4.808;2023-07-13T01:30:53;101406.28;;;15.15;86.02
81704;BME280;71117;52.352;4.808;2023-07-13T01:33:18;101401.91;;;15.15;85.94
81704;BME280;71117;52.352;4.808;2023-07-13T01:35:45;101404.47;;;15.07;86.04
81704;BME280;71117;52.352;4.808;2023-07-13T01:38:14;101409.78;;;15.04;85.68
81704;BME280;71117;52.352;4.808;2023-07-13T01:40:39;101410.63;;;15.02;86.20
81704;BME280;71117;52.352;4.808;2023-07-13T01:43:05;101408.84;;;15.02;85.19
81704;BME280;71117;52.352;4.808;2023-07-13T01:45:31;101415.06;;;15.03;86.04
81704;BME280;71117;52.352;4.808;2023-07-13T01:47:57;101415.00;;;14.94;86.15
81704;BME280;71117;52.352;4.808;2023-07-13T01:50:24;101414.97;;;14.88;85.72
81704;BME280;71117;52.352;4.808;2023-07-13T01:52:49;101404.28;;;14.81;86.09
81704;BME280;71117;52.352;4.808;2023-07-13T01:55:15;101412.25;;;14.83;86.09
81704;BME280;71117;52.352;4.808;2023-07-13T01:57:40;101418.47;;;14.84;85.34
81704;BME280;71117;52.352;4.808;2023-07-13T02:00:09;101425.53;;;14.81;85.44
81704;BME280;71117;52.352;4.808;2023-07-13T02:02:34;101422.88;;;14.83;85.66
81704;BME280;71117;52.352;4.808;2023-07-13T02:05:00;101425.53;;;14.85;84.61
81704;BME280;71117;52.352;4.808;2023-07-13T02:07:26;101429.97;;;14.82;85.15
81704;BME280;71117;52.352;4.808;2023-07-13T02:09:51;101419.34;;;14.84;84.70
81704;BME280;71117;52.352;4.808;2023-07-13T02:12:16;101432.59;;;14.81;85.17
81704;BME280;71117;52.352;4.808;2023-07-13T02:14:42;101433.50;;;14.81;84.38
81704;BME280;71117;52.352;4.808;2023-07-13T02:17:09;101422.94;;;14.88;83.19
81704;BME280;71117;52.352;4.808;2023-07-13T02:19:35;101433.63;;;14.95;83.24
81704;BME280;71117;52.352;4.808;2023-07-13T02:22:00;101436.25;;;14.92;83.68
81704;BME280;71117;52.352;4.808;2023-07-13T02:24:27;101432.69;;;14.87;83.96
81704;BME280;71117;52.352;4.808;2023-07-13T02:26:52;101444.22;;;14.92;84.17
81704;BME280;71117;52.352;4.808;2023-07-13T02:29:19;101443.25;;;14.82;84.58
81704;BME280;71117;52.352;4.808;2023-07-13T02:31:45;101437.97;;;14.86;84.95
81704;BME280;71117;52.352;4.808;2023-07-13T02:34:10;101438.00;;;14.92;84.22
81704;BME280;71117;52.352;4.808;2023-07-13T02:36:35;101434.56;;;14.99;84.13
81704;BME280;71117;52.352;4.808;2023-07-13T02:39:03;101438.94;;;14.97;84.47
81704;BME280;71117;52.352;4.808;2023-07-13T02:41:29;101439.06;;;15.07;83.59
81704;BME280;71117;52.352;4.808;2023-07-13T02:43:55;101429.34;;;15.11;83.21
81704;BME280;71117;52.352;4.808;2023-07-13T02:46:28;101425.84;;;15.18;82.72
81704;BME280;71117;52.352;4.808;2023-07-13T02:48:54;101430.38;;;15.27;82.41
81704;BME280;71117;52.352;4.808;2023-07-13T02:51:19;101428.59;;;15.30;82.65
81704;BME280;71117;52.352;4.808;2023-07-13T02:53:45;101435.72;;;15.33;83.16
81704;BME280;71117;52.352;4.808;2023-07-13T02:56:10;101436.66;;;15.38;83.59
81704;BME280;71117;52.352;4.808;2023-07-13T02:58:35;101434.88;;;15.39;83.61
81704;BME280;71117;52.352;4.808;2023-07-13T03:01:08;101442.88;;;15.39;84.05
81704;BME280;71117;52.352;4.808;2023-07-13T03:03:34;101443.84;;;15.51;82.99
81704;BME280;71117;52.352;4.808;2023-07-13T03:06:01;101442.06;;;15.52;83.21
81704;BME280;71117;52.352;4.808;2023-07-13T03:08:27;101450.03;;;15.50;83.63
81704;BME280;71117;52.352;4.808;2023-07-13T03:11:05;101445.59;;;15.51;83.93
81704;BME280;71117;52.352;4.808;2023-07-13T03:13:31;101443.84;;;15.50;83.59
81704;BME280;71117;52.352;4.808;2023-07-13T03:15:56;101448.28;;;15.54;83.03
81704;BME280;71117;52.352;4.808;2023-07-13T03:18:22;101442.94;;;15.52;82.95
81704;BME280;71117;52.352;4.808;2023-07-13T03:20:50;101447.38;;;15.52;83.26
81704;BME280;71117;52.352;4.808;2023-07-13T03:23:16;101446.50;;;15.51;83.22
81704;BME280;71117;52.352;4.808;2023-07-13T03:25:42;101451.81;;;15.53;82.89
81704;BME280;71117;52.352;4.808;2023-07-13T03:28:07;101442.94;;;15.49;83.46
81704;BME280;71117;52.352;4.808;2023-07-13T03:30:33;101437.63;;;15.49;83.05
81704;BME280;71117;52.352;4.808;2023-07-13T03:32:58;101448.22;;;15.45;83.45
81704;BME280;71117;52.352;4.808;2023-07-13T03:35:24;101440.25;;;15.45;83.19
81704;BME280;71117;52.352;4.808;2023-07-13T03:37:49;101446.50;;;15.53;82.96
81704;BME280;71117;52.352;4.808;2023-07-13T03:40:16;101448.31;;;15.55;82.37
81704;BME280;71117;52.352;4.808;2023-07-13T03:42:42;101444.75;;;15.56;82.57
81704;BME280;71117;52.352;4.808;2023-07-13T03:45:08;101446.50;;;15.53;82.86
81704;BME280;71117;52.352;4.808;2023-07-13T03:47:33;101450.94;;;15.54;82.58
81704;BME280;71117;52.352;4.808;2023-07-13T03:49:58;101445.63;;;15.54;82.55
81704;BME280;71117;52.352;4.808;2023-07-13T03:52:24;101447.38;;;15.49;82.88
81704;BME280;71117;52.352;4.808;2023-07-13T03:54:49;101456.22;;;15.45;83.40
81704;BME280;71117;52.352;4.808;2023-07-13T03:57:15;101451.75;;;15.41;83.82
81704;BME280;71117;52.352;4.808;2023-07-13T03:59:40;101449.09;;;15.42;83.43
81704;BME280;71117;52.352;4.808;2023-07-13T04:02:06;101455.28;;;15.38;84.05
81704;BME280;71117;52.352;4.808;2023-07-13T04:04:32;101452.63;;;15.40;83.41
81704;BME280;71117;52.352;4.808;2023-07-13T04:06:58;101455.31;;;15.44;83.88
81704;BME280;71117;52.352;4.808;2023-07-13T04:09:24;101458.03;;;15.49;83.71
81704;BME280;71117;52.352;4.808;2023-07-13T04:11:49;101456.25;;;15.49;83.67
81704;BME280;71117;52.352;4.808;2023-07-13T04:14:15;101466.00;;;15.49;83.64
81704;BME280;71117;52.352;4.808;2023-07-13T04:16:41;101461.56;;;15.49;83.74
81704;BME280;71117;52.352;4.808;2023-07-13T04:19:07;101470.47;;;15.53;83.98
81704;BME280;71117;52.352;4.808;2023-07-13T04:21:33;101460.72;;;15.56;83.72
81704;BME280;71117;52.352;4.808;2023-07-13T04:23:58;101467.78;;;15.53;83.75
81704;BME280;71117;52.352;4.808;2023-07-13T04:26:24;101469.56;;;15.52;83.84
81704;BME280;71117;52.352;4.808;2023-07-13T04:28:50;101469.56;;;15.54;84.12
81704;BME280;71117;52.352;4.808;2023-07-13T04:31:16;101464.25;;;15.51;84.44
81704;BME280;71117;52.352;4.808;2023-07-13T04:33:41;101466.91;;;15.52;84.32
81704;BME280;71117;52.352;4.808;2023-07-13T04:36:09;101467.00;;;15.63;84.51
81704;BME280;71117;52.352;4.808;2023-07-13T04:38:35;101472.41;;;15.72;84.05
81704;BME280;71117;52.352;4.808;2023-07-13T04:41:02;101480.44;;;15.81;83.99
81704;BME280;71117;52.352;4.808;2023-07-13T04:43:29;101478.69;;;15.86;83.62
81704;BME280;71117;52.352;4.808;2023-07-13T04:45:55;101484.97;;;15.98;83.91
81704;BME280;71117;52.352;4.808;2023-07-13T04:48:21;101488.56;;;16.01;83.93
81704;BME280;71117;52.352;4.808;2023-07-13T04:50:46;101495.69;;;16.08;83.33
81704;BME280;71117;52.352;4.808;2023-07-13T04:53:12;101485.97;;;16.13;83.48
81704;BME280;71117;52.352;4.808;2023-07-13T04:55:38;101484.22;;;16.19;83.72
81704;BME280;71117;52.352;4.808;2023-07-13T04:58:04;101490.47;;;16.27;83.99
81704;BME280;71117;52.352;4.808;2023-07-13T05:00:30;101493.19;;;16.42;82.70
81704;BME280;71117;52.352;4.808;2023-07-13T05:02:56;101493.22;;;16.48;82.05
81704;BME280;71117;52.352;4.808;2023-07-13T05:05:23;101503.03;;;16.51;82.59
81704;BME280;71117;52.352;4.808;2023-07-13T05:07:49;101496.81;;;16.56;82.18
81704;BME280;71117;52.352;4.808;2023-07-13T05:10:15;101498.59;;;16.60;82.68
81704;BME280;71117;52.352;4.808;2023-07-13T05:12:40;101496.81;;;16.61;82.79
81704;BME280;71117;52.352;4.808;2023-07-13T05:15:07;101499.50;;;16.70;82.15
81704;BME280;71117;52.352;4.808;2023-07-13T05:17:32;101501.34;;;16.77;82.07
81704;BME280;71117;52.352;4.808;2023-07-13T05:19:58;101506.72;;;16.92;80.63
81704;BME280;71117;52.352;4.808;2023-07-13T05:22:23;101512.06;;;16.99;80.67
81704;BME280;71117;52.352;4.808;2023-07-13T05:24:49;101508.53;;;17.09;80.21
81704;BME280;71117;52.352;4.808;2023-07-13T05:27:14;101513.88;;;17.12;80.05
81704;BME280;71117;52.352;4.808;2023-07-13T05:29:40;101519.22;;;17.19;79.10
81704;BME280;71117;52.352;4.808;2023-07-13T05:32:06;101516.53;;;17.27;79.21
81704;BME280;71117;52.352;4.808;2023-07-13T05:34:31;101513.00;;;17.33;78.45
81704;BME280;71117;52.352;4.808;2023-07-13T05:36:57;101523.66;;;17.33;79.14
81704;BME280;71117;52.352;4.808;2023-07-13T05:39:22;101527.25;;;17.35;78.02
81704;BME280;71117;52.352;4.808;2023-07-13T05:41:48;101513.91;;;17.36;77.90
81704;BME280;71117;52.352;4.808;2023-07-13T05:44:14;101523.69;;;17.43;77.66
81704;BME280;71117;52.352;4.808;2023-07-13T05:46:39;101520.13;;;17.48;77.92
81704;BME280;71117;52.352;4.808;2023-07-13T05:49:05;101525.47;;;17.55;77.47
81704;BME280;71117;52.352;4.808;2023-07-13T05:51:30;101528.13;;;17.60;76.68
81704;BME280;71117;52.352;4.808;2023-07-13T05:53:55;101529.03;;;17.63;77.18
81704;BME280;71117;52.352;4.808;2023-07-13T05:56:21;101524.59;;;17.68;76.01
81704;BME280;71117;52.352;4.808;2023-07-13T05:58:48;101536.16;;;17.83;75.86
81704;BME280;71117;52.352;4.808;2023-07-13T06:01:15;101537.94;;;17.88;73.93
81704;BME280;71117;52.352;4.808;2023-07-13T06:03:40;101542.38;;;17.89;73.76
81704;BME280;71117;52.352;4.808;2023-07-13T06:06:08;101540.63;;;17.91;73.48
81704;BME280;71117;52.352;4.808;2023-07-13T06:08:34;101537.03;;;17.92;73.19
81704;BME280;71117;52.352;4.808;2023-07-13T06:11:09;101542.38;;;17.95;72.35
81704;BME280;71117;52.352;4.808;2023-07-13T06:13:37;101549.50;;;18.00;71.96
81704;BME280;71117;52.352;4.808;2023-07-13T06:16:03;101550.41;;;17.91;73.34
81704;BME280;71117;52.352;4.808;2023-07-13T06:18:33;101552.19;;;17.92;73.02
81704;BME280;71117;52.352;4.808;2023-07-13T06:20:59;101562.00;;;17.93;71.23
81704;BME280;71117;52.352;4.808;2023-07-13T06:23:25;101562.88;;;18.00;70.96
81704;BME280;71117;52.352;4.808;2023-07-13T06:25:51;101560.19;;;18.04;71.01
81704;BME280;71117;52.352;4.808;2023-07-13T06:28:16;101561.97;;;17.99;70.24
81704;BME280;71117;52.352;4.808;2023-07-13T06:30:41;101559.28;;;18.11;69.84
81704;BME280;71117;52.352;4.808;2023-07-13T06:33:07;101571.72;;;18.23;69.79
81704;BME280;71117;52.352;4.808;2023-07-13T06:35:32;101568.16;;;18.27;69.95
81704;BME280;71117;52.352;4.808;2023-07-13T06:37:58;101556.56;;;18.31;69.57
81704;BME280;71117;52.352;4.808;2023-07-13T06:40:24;101569.94;;;18.36;70.81
81704;BME280;71117;52.352;4.808;2023-07-13T06:42:49;101571.72;;;18.37;71.40
81704;BME280;71117;52.352;4.808;2023-07-13T06:45:15;101574.41;;;18.26;69.99
81704;BME280;71117;52.352;4.808;2023-07-13T06:47:40;101577.97;;;18.20;70.63
81704;BME280;71117;52.352;4.808;2023-07-13T06:50:07;101581.53;;;18.16;70.08
81704;BME280;71117;52.352;4.808;2023-07-13T06:52:32;101578.91;;;18.00;70.56
81704;BME280;71117;52.352;4.808;2023-07-13T06:54:58;101575.34;;;17.87;71.35
81704;BME280;71117;52.352;4.808;2023-07-13T06:57:23;101576.25;;;17.80;72.20
81704;BME280;71117;52.352;4.808;2023-07-13T06:59:49;101588.72;;;17.79;72.66
81704;BME280;71117;52.352;4.808;2023-07-13T07:02:14;101593.16;;;18.02;72.56
81704;BME280;71117;52.352;4.808;2023-07-13T07:04:40;101597.56;;;18.27;70.28
81704;BME280;71117;52.352;4.808;2023-07-13T07:07:05;101597.50;;;18.58;69.47
81704;BME280;71117;52.352;4.808;2023-07-13T07:09:30;101587.66;;;18.57;68.57
81704;BME280;71117;52.352;4.808;2023-07-13T07:11:56;101589.47;;;18.59;68.56
81704;BME280;71117;52.352;4.808;2023-07-13T07:14:22;101593.91;;;18.57;68.59
81704;BME280;71117;52.352;4.808;2023-07-13T07:16:47;101596.59;;;18.57;67.78
81704;BME280;71117;52.352;4.808;2023-07-13T07:19:13;101607.34;;;18.43;67.71
81704;BME280;71117;52.352;4.808;2023-07-13T07:21:38;101607.34;;;18.40;67.98
81704;BME280;71117;52.352;4.808;2023-07-13T07:24:04;101606.47;;;18.32;66.93
81704;BME280;71117;52.352;4.808;2023-07-13T07:26:30;101616.25;;;18.38;67.23
81704;BME280;71117;52.352;4.808;2023-07-13T07:28:56;101618.03;;;18.48;68.86
81704;BME280;71117;52.352;4.808;2023-07-13T07:31:21;101613.56;;;18.58;67.21
81704;BME280;71117;52.352;4.808;2023-07-13T07:33:47;101610.84;;;18.64;66.71
81704;BME280;71117;52.352;4.808;2023-07-13T07:36:15;101618.91;;;18.53;65.98
81704;BME280;71117;52.352;4.808;2023-07-13T07:38:41;101613.59;;;18.47;66.63
81704;BME280;71117;52.352;4.808;2023-07-13T07:41:06;101605.56;;;18.35;67.61
81704;BME280;71117;52.352;4.808;2023-07-13T07:43:32;101602.03;;;18.25;67.57
81704;BME280;71117;52.352;4.808;2023-07-13T07:45:58;101619.88;;;18.15;67.24
81704;BME280;71117;52.352;4.808;2023-07-13T07:48:23;101618.06;;;18.33;65.35
81704;BME280;71117;52.352;4.808;2023-07-13T07:50:49;101619.78;;;18.69;64.77
81704;BME280;71117;52.352;4.808;2023-07-13T07:53:15;101614.38;;;18.84;65.72
81704;BME280;71117;52.352;4.808;2023-07-13T07:55:40;101614.34;;;18.93;65.33
81704;BME280;71117;52.352;4.808;2023-07-13T07:58:06;101613.44;;;18.94;65.24
81704;BME280;71117;52.352;4.808;2023-07-13T08:00:32;101608.03;;;19.02;64.81
81704;BME280;71117;52.352;4.808;2023-07-13T08:02:58;101609.75;;;19.15;64.35
81704;BME280;71117;52.352;4.808;2023-07-13T08:05:24;101609.78;;;19.08;63.04
81704;BME280;71117;52.352;4.808;2023-07-13T08:07:50;101607.19;;;18.97;63.11
81704;BME280;71117;52.352;4.808;2023-07-13T08:10:16;101610.78;;;18.90;63.76
81704;BME280;71117;52.352;4.808;2023-07-13T08:12:41;101610.66;;;19.13;63.21
81704;BME280;71117;52.352;4.808;2023-07-13T08:15:11;101609.66;;;19.32;63.12
81704;BME280;71117;52.352;4.808;2023-07-13T08:17:37;101614.91;;;19.46;61.45
81704;BME280;71117;52.352;4.808;2023-07-13T08:20:03;101614.13;;;19.32;62.54
81704;BME280;71117;52.352;4.808;2023-07-13T08:22:29;101623.13;;;19.17;61.36
81704;BME280;71117;52.352;4.808;2023-07-13T08:24:54;101617.75;;;19.18;62.63
81704;BME280;71117;52.352;4.808;2023-07-13T08:27:23;101614.94;;;19.44;62.20
81704;BME280;71117;52.352;4.808;2023-07-13T08:29:50;101613.78;;;19.80;61.48
81704;BME280;71117;52.352;4.808;2023-07-13T08:32:15;101612.00;;;19.84;61.15
81704;BME280;71117;52.352;4.808;2023-07-13T08:34:41;101619.09;;;19.90;61.21
81704;BME280;71117;52.352;4.808;2023-07-13T08:37:06;101639.63;;;19.91;59.23
81704;BME280;71117;52.352;4.808;2023-07-13T08:39:32;101628.91;;;19.94;58.52
81704;BME280;71117;52.352;4.808;2023-07-13T08:42:12;101622.63;;;19.98;58.99
81704;BME280;71117;52.352;4.808;2023-07-13T08:44:57;101639.34;;;20.23;58.39
81704;BME280;71117;52.352;4.808;2023-07-13T08:47:26;101637.88;;;19.85;58.73
81704;BME280;71117;52.352;4.808;2023-07-13T08:49:53;101640.69;;;19.71;59.42
81704;BME280;71117;52.352;4.808;2023-07-13T08:52:38;101642.41;;;19.80;58.16
81704;BME280;71117;52.352;4.808;2023-07-13T08:57:38;101645.25;;;19.60;58.04
81704;BME280;71117;52.352;4.808;2023-07-13T09:00:08;101652.44;;;19.46;58.88
81704;BME280;71117;52.352;4.808;2023-07-13T09:05:04;101645.16;;;19.69;58.29
81704;BME280;71117;52.352;4.808;2023-07-13T09:10:28;101657.00;;;19.28;57.89
81704;BME280;71117;52.352;4.808;2023-07-13T09:13:04;101650.72;;;19.34;58.83
81704;BME280;71117;52.352;4.808;2023-07-13T09:15:37;101646.91;;;19.76;57.61
81704;BME280;71117;52.352;4.808;2023-07-13T09:20:42;101657.75;;;20.64;55.71
81704;BME280;71117;52.352;4.808;2023-07-13T09:23:16;101661.84;;;20.96;55.39
81704;BME280;71117;52.352;4.808;2023-07-13T09:25:45;101656.78;;;20.70;54.52
81704;BME280;71117;52.352;4.808;2023-07-13T09:28:18;101670.38;;;20.53;55.65
81704;BME280;71117;52.352;4.808;2023-07-13T09:33:28;101661.88;;;20.94;54.05
81704;BME280;71117;52.352;4.808;2023-07-13T09:35:56;101665.72;;;20.72;53.69
81704;BME280;71117;52.352;4.808;2023-07-13T09:38:24;101671.22;;;20.59;54.52
81704;BME280;71117;52.352;4.808;2023-07-13T09:41:09;101661.88;;;20.94;54.37
81704;BME280;71117;52.352;4.808;2023-07-13T09:44:07;101673.06;;;20.53;55.55
81704;BME280;71117;52.352;4.808;2023-07-13T09:46:34;101669.56;;;20.45;55.07
81704;BME280;71117;52.352;4.808;2023-07-13T09:49:00;101678.63;;;20.30;56.23
81704;BME280;71117;52.352;4.808;2023-07-13T09:51:25;101669.31;;;20.71;53.69
81704;BME280;71117;52.352;4.808;2023-07-13T09:53:51;101672.75;;;20.83;53.46
81704;BME280;71117;52.352;4.808;2023-07-13T09:56:26;101669.78;;;21.06;52.36
81704;BME280;71117;52.352;4.808;2023-07-13T09:58:53;101688.34;;;20.42;53.88
81704;BME280;71117;52.352;4.808;2023-07-13T10:01:34;101686.56;;;20.41;53.95
81704;BME280;71117;52.352;4.808;2023-07-13T10:04:00;101683.03;;;20.39;53.09
81704;BME280;71117;52.352;4.808;2023-07-13T10:06:26;101686.19;;;20.80;51.97
81704;BME280;71117;52.352;4.808;2023-07-13T10:08:55;101686.72;;;21.13;53.16
81704;BME280;71117;52.352;4.808;2023-07-13T10:11:28;101695.53;;;21.24;51.67
81704;BME280;71117;52.352;4.808;2023-07-13T10:13:56;101700.06;;;21.85;51.43
81704;BME280;71117;52.352;4.808;2023-07-13T10:16:26;101700.97;;;21.83;49.60
81704;BME280;71117;52.352;4.808;2023-07-13T10:18:59;101710.38;;;21.56;50.22
81704;BME280;71117;52.352;4.808;2023-07-13T10:21:32;101707.13;;;21.26;52.04
81704;BME280;71117;52.352;4.808;2023-07-13T10:24:15;101705.50;;;21.81;51.03
81704;BME280;71117;52.352;4.808;2023-07-13T10:29:34;101714.63;;;20.98;52.07
81704;BME280;71117;52.352;4.808;2023-07-13T10:32:01;101718.28;;;21.67;51.18
81704;BME280;71117;52.352;4.808;2023-07-13T10:34:26;101726.03;;;21.86;50.56
81704;BME280;71117;52.352;4.808;2023-07-13T10:36:52;101713.22;;;22.04;49.71
81704;BME280;71117;52.352;4.808;2023-07-13T10:39:25;101715.03;;;22.03;49.65
81704;BME280;71117;52.352;4.808;2023-07-13T10:42:00;101721.91;;;22.24;48.16
81704;BME280;71117;52.352;4.808;2023-07-13T10:44:28;101734.81;;;22.56;48.36
81704;BME280;71117;52.352;4.808;2023-07-13T10:46:57;101732.13;;;22.55;47.93
81704;BME280;71117;52.352;4.808;2023-07-13T10:49:24;101734.47;;;22.75;47.66
81704;BME280;71117;52.352;4.808;2023-07-13T10:51:52;101740.31;;;23.43;47.22
81704;BME280;71117;52.352;4.808;2023-07-13T10:54:30;101735.03;;;22.93;47.55
81704;BME280;71117;52.352;4.808;2023-07-13T10:59:46;101746.72;;;22.41;46.13
81704;BME280;71117;52.352;4.808;2023-07-13T11:02:24;101751.28;;;23.35;44.41
81704;BME280;71117;52.352;4.808;2023-07-13T11:04:53;101763.28;;;23.64;43.49
81704;BME280;71117;52.352;4.808;2023-07-13T11:09:52;101750.38;;;24.15;45.19
81704;BME280;71117;52.352;4.808;2023-07-13T11:17:48;101752.59;;;23.98;41.94
81704;BME280;71117;52.352;4.808;2023-07-13T11:22:49;101751.28;;;24.53;42.34
81704;BME280;71117;52.352;4.808;2023-07-13T11:28:06;101749.09;;;25.93;41.10
81704;BME280;71117;52.352;4.808;2023-07-13T11:30:43;101745.59;;;24.96;41.14
81704;BME280;71117;52.352;4.808;2023-07-13T11:33:49;101753.97;;;24.53;41.59
81704;BME280;71117;52.352;4.808;2023-07-13T11:36:15;101756.22;;;24.36;41.42
81704;BME280;71117;52.352;4.808;2023-07-13T11:38:43;101740.06;;;24.33;42.54
81704;BME280;71117;52.352;4.808;2023-07-13T11:41:25;101756.91;;;24.78;41.74
81704;BME280;71117;52.352;4.808;2023-07-13T11:44:02;101748.31;;;25.58;39.73
81704;BME280;71117;52.352;4.808;2023-07-13T11:46:28;101759.41;;;26.08;39.32
81704;BME280;71117;52.352;4.808;2023-07-13T11:48:54;101759.19;;;26.15;39.03
81704;BME280;71117;52.352;4.808;2023-07-13T11:51:26;101766.59;;;26.90;36.42
81704;BME280;71117;52.352;4.808;2023-07-13T11:53:55;101756.94;;;26.57;38.74
81704;BME280;71117;52.352;4.808;2023-07-13T11:56:23;101761.34;;;26.59;39.30
81704;BME280;71117;52.352;4.808;2023-07-13T11:58:54;101771.88;;;26.42;38.40
81704;BME280;71117;52.352;4.808;2023-07-13T12:01:23;101768.53;;;25.16;40.13
81704;BME280;71117;52.352;4.808;2023-07-13T12:03:49;101769.13;;;25.86;40.34
81704;BME280;71117;52.352;4.808;2023-07-13T12:06:26;101770.22;;;26.36;39.19
81704;BME280;71117;52.352;4.808;2023-07-13T12:08:56;101786.78;;;23.97;43.91
81704;BME280;71117;52.352;4.808;2023-07-13T12:11:21;101768.25;;;24.92;42.66
81704;BME280;71117;52.352;4.808;2023-07-13T12:13:47;101767.19;;;26.19;41.62
81704;BME280;71117;52.352;4.808;2023-07-13T12:16:25;101768.88;;;24.69;43.33
81704;BME280;71117;52.352;4.808;2023-07-13T12:18:53;101764.34;;;25.02;42.74
81704;BME280;71117;52.352;4.808;2023-07-13T12:21:19;101769.91;;;24.26;44.16
81704;BME280;71117;52.352;4.808;2023-07-13T12:23:49;101765.63;;;26.12;40.76
81704;BME280;71117;52.352;4.808;2023-07-13T12:26:15;101765.84;;;27.12;37.96
81704;BME280;71117;52.352;4.808;2023-07-13T12:28:51;101771.34;;;26.84;40.00
81704;BME280;71117;52.352;4.808;2023-07-13T12:34:03;101762.81;;;27.91;35.49
81704;BME280;71117;52.352;4.808;2023-07-13T12:36:34;101770.75;;;27.26;39.19
81704;BME280;71117;52.352;4.808;2023-07-13T12:39:13;101772.50;;;26.50;38.86
81704;BME280;71117;52.352;4.808;2023-07-13T12:41:40;101778.66;;;26.27;39.41
81704;BME280;71117;52.352;4.808;2023-07-13T12:44:14;101775.25;;;26.21;38.97
81704;BME280;71117;52.352;4.808;2023-07-13T12:46:52;101761.84;;;27.92;38.29
81704;BME280;71117;52.352;4.808;2023-07-13T12:49:24;101760.75;;;28.20;36.54
81704;BME280;71117;52.352;4.808;2023-07-13T12:51:50;101764.41;;;28.63;34.61
81704;BME280;71117;52.352;4.808;2023-07-13T12:54:18;101767.38;;;25.85;39.31
81704;BME280;71117;52.352;4.808;2023-07-13T12:56:45;101777.31;;;24.90;42.82
81704;BME280;71117;52.352;4.808;2023-07-13T12:59:19;101778.88;;;25.62;42.42
81704;BME280;71117;52.352;4.808;2023-07-13T13:01:46;101774.25;;;27.53;38.53
81704;BME280;71117;52.352;4.808;2023-07-13T13:04:12;101772.63;;;27.72;37.87
81704;BME280;71117;52.352;4.808;2023-07-13T13:06:38;101789.28;;;26.33;39.24
81704;BME280;71117;52.352;4.808;2023-07-13T13:09:11;101784.06;;;24.38;43.87
81704;BME280;71117;52.352;4.808;2023-07-13T13:11:37;101776.06;;;25.03;44.49
81704;BME280;71117;52.352;4.808;2023-07-13T13:14:03;101782.78;;;25.21;43.85
81704;BME280;71117;52.352;4.808;2023-07-13T13:18:59;101786.72;;;25.71;42.35
81704;BME280;71117;52.352;4.808;2023-07-13T13:21:25;101794.03;;;27.31;40.38
81704;BME280;71117;52.352;4.808;2023-07-13T13:23:51;101784.59;;;25.51;42.17
81704;BME280;71117;52.352;4.808;2023-07-13T13:26:19;101796.19;;;24.18;44.85
81704;BME280;71117;52.352;4.808;2023-07-13T13:28:45;101797.97;;;23.36;45.75
81704;BME280;71117;52.352;4.808;2023-07-13T13:31:12;101800.59;;;25.90;41.75